sensor_id;sensor_type;location;lat;lon;timestamp;P1;durP1;ratioP1;P2;durP2;ratioP2
13366;SDS011;6752;52.612;13.630;2022-08-19T00:02:31;11.45;;;10.25;;
13366;SDS011;6752;52.612;13.630;2022-08-19T00:07:33;16.37;;;11.45;;
13366;SDS011;6752;52.612;13.630;2022-08-19T00:12:38;15.15;;;12.10;;
13366;SDS011;6752;52.612;13.630;2022-08-19T00:17:44;16.60;;;12.73;;
13366;SDS011;6752;52.612;13.630;2022-08-19T00:22:46;14.65;;;12.50;;
13366;SDS011;6752;52.612;13.630;2022-08-19T00:27:49;13.35;;;11.95;;
13366;SDS011;6752;52.612;13.630;2022-08-19T00:32:51;15.75;;;14.10;;
13366;SDS011;6752;52.612;13.630;2022-08-19T00:37:54;16.10;;;12.95;;
13366;SDS011;6752;52.612;13.630;2022-08-19T00:42:56;15.63;;;12.95;;
13366;SDS011;6752;52.612;13.630;2022-08-19T00:47:58;13.65;;;12.25;;
13366;SDS011;6752;52.612;13.630;2022-08-19T00:53:00;12.10;;;10.80;;
13366;SDS011;6752;52.612;13.630;2022-08-19T00:58:07;13.43;;;11.23;;
13366;SDS011;6752;52.612;13.630;2022-08-19T01:03:09;16.05;;;12.50;;
13366;SDS011;6752;52.612;13.630;2022-08-19T01:08:10;13.80;;;12.23;;
13366;SDS011;6752;52.612;13.630;2022-08-19T01:13:16;15.60;;;12.20;;
13366;SDS011;6752;52.612;13.630;2022-08-19T01:18:18;13.52;;;12.13;;
13366;SDS011;6752;52.612;13.630;2022-08-19T02:26:12;19.33;;;13.80;;
13366;SDS011;6752;52.612;13.630;2022-08-19T02:31:12;15.73;;;13.98;;
13366;SDS011;6752;52.612;13.630;2022-08-19T02:36:15;16.20;;;14.50;;
13366;SDS011;6752;52.612;13.630;2022-08-19T02:41:24;15.65;;;13.40;;
13366;SDS011;6752;52.612;13.630;2022-08-19T02:46:26;17.00;;;14.07;;
13366;SDS011;6752;52.612;13.630;2022-08-19T02:51:30;16.95;;;15.25;;
13366;SDS011;6752;52.612;13.630;2022-08-19T02:56:34;19.50;;;14.20;;
13366;SDS011;6752;52.612;13.630;2022-08-19T03:01:35;20.25;;;14.75;;
13366;SDS011;6752;52.612;13.630;2022-08-19T03:11:58;15.13;;;12.75;;
13366;SDS011;6752;52.612;13.630;2022-08-19T03:17:00;15.35;;;13.27;;
13366;SDS011;6752;52.612;13.630;2022-08-19T03:22:02;15.23;;;13.20;;
13366;SDS011;6752;52.612;13.630;2022-08-19T03:27:08;17.25;;;15.15;;
13366;SDS011;6752;52.612;13.630;2022-08-19T03:37:31;15.52;;;13.40;;
13366;SDS011;6752;52.612;13.630;2022-08-19T03:42:34;16.27;;;14.15;;
13366;SDS011;6752;52.612;13.630;2022-08-19T03:47:43;18.37;;;14.23;;
13366;SDS011;6752;52.612;13.630;2022-08-19T03:52:41;15.63;;;13.73;;
13366;SDS011;6752;52.612;13.630;2022-08-19T03:57:46;15.88;;;14.23;;
13366;SDS011;6752;52.612;13.630;2022-08-19T04:03:38;19.05;;;14.18;;
13366;SDS011;6752;52.612;13.630;2022-08-19T04:13:21;15.32;;;13.73;;
13366;SDS011;6752;52.612;13.630;2022-08-19T04:18:26;17.50;;;14.30;;
13366;SDS011;6752;52.612;13.630;2022-08-19T04:23:30;18.67;;;13.57;;
13366;SDS011;6752;52.612;13.630;2022-08-19T04:28:53;16.17;;;14.48;;
13366;SDS011;6752;52.612;13.630;2022-08-19T04:39:03;17.30;;;13.77;;
13366;SDS011;6752;52.612;13.630;2022-08-19T04:44:18;14.38;;;12.88;;
13366;SDS011;6752;52.612;13.630;2022-08-19T04:54:25;17.45;;;14.30;;
13366;SDS011;6752;52.612;13.630;2022-08-19T04:59:30;16.35;;;14.00;;
13366;SDS011;6752;52.612;13.630;2022-08-19T05:04:36;16.05;;;14.43;;
13366;SDS011;6752;52.612;13.630;2022-08-19T05:09:47;16.75;;;14.80;;
13366;SDS011;6752;52.612;13.630;2022-08-19T05:14:41;14.95;;;13.05;;
13366;SDS011;6752;52.612;13.630;2022-08-19T05:19:50;16.23;;;14.52;;
13366;SDS011;6752;52.612;13.630;2022-08-19T05:25:26;17.55;;;15.68;;
13366;SDS011;6752;52.612;13.630;2022-08-19T05:30:59;19.58;;;15.60;;
13366;SDS011;6752;52.612;13.630;2022-08-19T05:36:07;18.60;;;16.27;;
13366;SDS011;6752;52.612;13.630;2022-08-19T05:46:24;20.77;;;18.77;;
13366;SDS011;6752;52.612;13.630;2022-08-19T05:51:27;21.55;;;19.10;;
13366;SDS011;6752;52.612;13.630;2022-08-19T06:01:43;22.20;;;19.83;;
13366;SDS011;6752;52.612;13.630;2022-08-19T06:06:48;18.45;;;16.65;;
13366;SDS011;6752;52.612;13.630;2022-08-19T06:12:01;17.80;;;16.08;;
13366;SDS011;6752;52.612;13.630;2022-08-19T06:17:22;16.77;;;15.07;;
13366;SDS011;6752;52.612;13.630;2022-08-19T06:23:22;20.00;;;18.02;;
13366;SDS011;6752;52.612;13.630;2022-08-19T06:28:04;20.00;;;17.83;;
13366;SDS011;6752;52.612;13.630;2022-08-19T06:33:07;21.62;;;19.48;;
13366;SDS011;6752;52.612;13.630;2022-08-19T06:38:09;21.42;;;19.23;;
13366;SDS011;6752;52.612;13.630;2022-08-19T06:43:12;22.67;;;19.87;;
13366;SDS011;6752;52.612;13.630;2022-08-19T06:48:14;23.83;;;21.33;;
13366;SDS011;6752;52.612;13.630;2022-08-19T06:53:16;20.98;;;18.87;;
13366;SDS011;6752;52.612;13.630;2022-08-19T06:58:19;23.90;;;20.33;;
13366;SDS011;6752;52.612;13.630;2022-08-19T07:03:21;23.30;;;20.80;;
13366;SDS011;6752;52.612;13.630;2022-08-19T07:08:24;22.67;;;20.15;;
13366;SDS011;6752;52.612;13.630;2022-08-19T07:13:26;21.67;;;18.87;;
13366;SDS011;6752;52.612;13.630;2022-08-19T07:18:28;19.37;;;17.27;;
13366;SDS011;6752;52.612;13.630;2022-08-19T07:23:31;20.25;;;17.37;;
13366;SDS011;6752;52.612;13.630;2022-08-19T07:28:33;19.92;;;17.83;;
13366;SDS011;6752;52.612;13.630;2022-08-19T07:33:35;21.80;;;18.30;;
13366;SDS011;6752;52.612;13.630;2022-08-19T07:38:40;19.77;;;17.58;;
13366;SDS011;6752;52.612;13.630;2022-08-19T07:43:40;20.20;;;18.20;;
13366;SDS011;6752;52.612;13.630;2022-08-19T07:48:43;22.13;;;19.62;;
13366;SDS011;6752;52.612;13.630;2022-08-19T07:53:45;20.85;;;18.67;;
13366;SDS011;6752;52.612;13.630;2022-08-19T07:58:48;20.58;;;18.42;;
13366;SDS011;6752;52.612;13.630;2022-08-19T08:03:50;21.90;;;19.12;;
13366;SDS011;6752;52.612;13.630;2022-08-19T08:09:11;21.52;;;19.20;;
13366;SDS011;6752;52.612;13.630;2022-08-19T08:14:13;20.52;;;18.35;;
13366;SDS011;6752;52.612;13.630;2022-08-19T08:19:16;23.45;;;19.33;;
13366;SDS011;6752;52.612;13.630;2022-08-19T08:24:18;18.85;;;16.83;;
13366;SDS011;6752;52.612;13.630;2022-08-19T08:29:20;22.70;;;17.90;;
13366;SDS011;6752;52.612;13.630;2022-08-19T08:34:22;20.77;;;18.23;;
13366;SDS011;6752;52.612;13.630;2022-08-19T08:39:25;19.00;;;17.10;;
13366;SDS011;6752;52.612;13.630;2022-08-19T08:44:29;18.33;;;16.52;;
13366;SDS011;6752;52.612;13.630;2022-08-19T08:54:47;19.75;;;17.73;;
13366;SDS011;6752;52.612;13.630;2022-08-19T08:59:48;18.08;;;16.02;;
13366;SDS011;6752;52.612;13.630;2022-08-19T09:04:51;15.00;;;13.48;;
13366;SDS011;6752;52.612;13.630;2022-08-19T09:09:55;16.58;;;14.82;;
13366;SDS011;6752;52.612;13.630;2022-08-19T09:15:04;16.50;;;14.57;;
13366;SDS011;6752;52.612;13.630;2022-08-19T09:20:12;20.62;;;16.45;;
13366;SDS011;6752;52.612;13.630;2022-08-19T09:25:13;18.52;;;16.20;;
13366;SDS011;6752;52.612;13.630;2022-08-19T09:30:19;16.20;;;14.02;;
13366;SDS011;6752;52.612;13.630;2022-08-19T09:35:16;15.32;;;13.62;;
13366;SDS011;6752;52.612;13.630;2022-08-19T09:40:18;14.82;;;12.88;;
13366;SDS011;6752;52.612;13.630;2022-08-19T09:45:21;15.38;;;13.10;;
13366;SDS011;6752;52.612;13.630;2022-08-19T09:50:23;16.87;;;15.07;;
13366;SDS011;6752;52.612;13.630;2022-08-19T09:55:25;17.25;;;13.73;;
13366;SDS011;6752;52.612;13.630;2022-08-19T10:00:28;15.73;;;12.57;;
13366;SDS011;6752;52.612;13.630;2022-08-19T10:05:33;14.77;;;12.93;;
13366;SDS011;6752;52.612;13.630;2022-08-19T10:10:50;14.80;;;12.88;;
13366;SDS011;6752;52.612;13.630;2022-08-19T10:15:53;16.05;;;14.35;;
13366;SDS011;6752;52.612;13.630;2022-08-19T10:21:02;15.82;;;12.95;;
13366;SDS011;6752;52.612;13.630;2022-08-19T10:26:00;15.60;;;13.05;;
13366;SDS011;6752;52.612;13.630;2022-08-19T10:31:07;13.57;;;11.57;;
13366;SDS011;6752;52.612;13.630;2022-08-19T10:36:15;16.95;;;12.07;;
13366;SDS011;6752;52.612;13.630;2022-08-19T10:41:20;15.77;;;13.18;;
13366;SDS011;6752;52.612;13.630;2022-08-19T10:46:21;13.50;;;12.07;;
13366;SDS011;6752;52.612;13.630;2022-08-19T10:51:24;12.40;;;11.07;;
13366;SDS011;6752;52.612;13.630;2022-08-19T10:56:48;14.25;;;10.60;;
13366;SDS011;6752;52.612;13.630;2022-08-19T11:01:54;19.30;;;12.27;;
13366;SDS011;6752;52.612;13.630;2022-08-19T11:06:56;13.15;;;11.82;;
13366;SDS011;6752;52.612;13.630;2022-08-19T11:11:59;14.02;;;12.18;;
13366;SDS011;6752;52.612;13.630;2022-08-19T11:17:04;14.25;;;11.85;;
13366;SDS011;6752;52.612;13.630;2022-08-19T11:22:07;14.50;;;11.63;;
13366;SDS011;6752;52.612;13.630;2022-08-19T11:27:15;14.38;;;12.48;;
13366;SDS011;6752;52.612;13.630;2022-08-19T11:33:02;15.00;;;11.25;;
13366;SDS011;6752;52.612;13.630;2022-08-19T11:37:59;17.17;;;12.98;;
13366;SDS011;6752;52.612;13.630;2022-08-19T18:44:07;16.08;;;12.90;;
13366;SDS011;6752;52.612;13.630;2022-08-19T18:49:29;13.55;;;12.13;;
13366;SDS011;6752;52.612;13.630;2022-08-19T18:54:30;12.07;;;10.85;;
13366;SDS011;6752;52.612;13.630;2022-08-19T18:59:33;15.50;;;12.60;;
13366;SDS011;6752;52.612;13.630;2022-08-19T19:04:35;14.50;;;11.65;;
13366;SDS011;6752;52.612;13.630;2022-08-19T19:14:44;14.23;;;12.40;;
13366;SDS011;6752;52.612;13.630;2022-08-19T19:19:46;14.43;;;12.50;;
13366;SDS011;6752;52.612;13.630;2022-08-19T19:24:49;15.32;;;13.73;;
13366;SDS011;6752;52.612;13.630;2022-08-19T19:29:51;15.10;;;13.52;;
13366;SDS011;6752;52.612;13.630;2022-08-19T19:34:54;12.90;;;11.43;;
13366;SDS011;6752;52.612;13.630;2022-08-19T19:39:56;11.57;;;9.82;;
13366;SDS011;6752;52.612;13.630;2022-08-19T19:45:16;13.13;;;10.25;;
13366;SDS011;6752;52.612;13.630;2022-08-19T19:50:18;13.30;;;10.25;;
13366;SDS011;6752;52.612;13.630;2022-08-19T19:55:21;11.90;;;10.15;;
13366;SDS011;6752;52.612;13.630;2022-08-19T20:00:23;11.80;;;9.65;;
13366;SDS011;6752;52.612;13.630;2022-08-19T20:05:26;11.65;;;10.55;;
13366;SDS011;6752;52.612;13.630;2022-08-19T20:10:28;11.12;;;10.00;;
13366;SDS011;6752;52.612;13.630;2022-08-19T20:15:31;11.95;;;10.00;;
13366;SDS011;6752;52.612;13.630;2022-08-19T20:20:33;10.77;;;9.02;;
13366;SDS011;6752;52.612;13.630;2022-08-19T20:25:36;10.77;;;8.50;;
13366;SDS011;6752;52.612;13.630;2022-08-19T20:30:38;10.00;;;8.52;;
13366;SDS011;6752;52.612;13.630;2022-08-19T20:35:41;9.95;;;8.93;;
13366;SDS011;6752;52.612;13.630;2022-08-19T20:40:43;11.00;;;9.23;;
13366;SDS011;6752;52.612;13.630;2022-08-19T20:45:45;9.57;;;8.57;;
13366;SDS011;6752;52.612;13.630;2022-08-19T20:50:48;11.15;;;8.93;;
13366;SDS011;6752;52.612;13.630;2022-08-19T20:55:50;12.80;;;9.82;;
13366;SDS011;6752;52.612;13.630;2022-08-19T21:00:59;10.18;;;9.00;;
13366;SDS011;6752;52.612;13.630;2022-08-19T21:06:01;9.40;;;8.17;;
13366;SDS011;6752;52.612;13.630;2022-08-19T21:11:04;11.02;;;8.73;;
13366;SDS011;6752;52.612;13.630;2022-08-19T21:16:06;10.77;;;9.10;;
13366;SDS011;6752;52.612;13.630;2022-08-19T21:21:08;10.00;;;8.90;;
13366;SDS011;6752;52.612;13.630;2022-08-19T21:31:12;13.07;;;11.12;;
13366;SDS011;6752;52.612;13.630;2022-08-19T21:36:15;10.10;;;9.00;;
13366;SDS011;6752;52.612;13.630;2022-08-19T21:41:17;14.02;;;9.32;;
13366;SDS011;6752;52.612;13.630;2022-08-19T21:46:19;9.90;;;8.90;;
13366;SDS011;6752;52.612;13.630;2022-08-19T21:51:22;9.90;;;8.90;;
13366;SDS011;6752;52.612;13.630;2022-08-19T21:56:29;13.10;;;9.27;;
13366;SDS011;6752;52.612;13.630;2022-08-19T22:01:30;12.02;;;10.43;;
13366;SDS011;6752;52.612;13.630;2022-08-19T22:06:32;14.30;;;10.13;;
13366;SDS011;6752;52.612;13.630;2022-08-19T22:11:35;14.80;;;10.68;;
13366;SDS011;6752;52.612;13.630;2022-08-19T22:16:37;11.57;;;9.73;;
13366;SDS011;6752;52.612;13.630;2022-08-19T22:21:40;12.43;;;9.88;;
13366;SDS011;6752;52.612;13.630;2022-08-19T22:26:42;11.60;;;10.40;;
13366;SDS011;6752;52.612;13.630;2022-08-19T22:31:44;14.38;;;11.85;;
13366;SDS011;6752;52.612;13.630;2022-08-19T22:36:47;13.57;;;12.18;;
13366;SDS011;6752;52.612;13.630;2022-08-19T22:41:49;15.27;;;12.02;;
13366;SDS011;6752;52.612;13.630;2022-08-19T22:46:51;15.00;;;13.50;;
13366;SDS011;6752;52.612;13.630;2022-08-19T22:57:18;13.73;;;12.32;;
13366;SDS011;6752;52.612;13.630;2022-08-19T23:02:17;13.35;;;12.05;;
13366;SDS011;6752;52.612;13.630;2022-08-19T23:07:24;16.25;;;13.02;;
13366;SDS011;6752;52.612;13.630;2022-08-19T23:12:31;14.52;;;13.13;;
13366;SDS011;6752;52.612;13.630;2022-08-19T23:17:29;14.75;;;13.13;;
13366;SDS011;6752;52.612;13.630;2022-08-19T23:22:31;15.45;;;13.85;;
13366;SDS011;6752;52.612;13.630;2022-08-19T23:27:34;15.40;;;13.73;;
13366;SDS011;6752;52.612;13.630;2022-08-19T23:32:55;16.70;;;14.90;;
13366;SDS011;6752;52.612;13.630;2022-08-19T23:37:56;16.80;;;15.00;;
13366;SDS011;6752;52.612;13.630;2022-08-19T23:42:59;16.48;;;14.77;;
13366;SDS011;6752;52.612;13.630;2022-08-19T23:58:05;16.23;;;14.52;;
